Montrose, CO

6:59 AM MDT on August 23, 2014 (GMT -0600)
Spring Creek | Change Station
CLOSE
Current Station
Personal Weather Station
Location: Montrose, CO
Elevation: 6020 ft
Nearby Weather Stations

Elev 6020 ft 38.44 °N, 107.90 °W | Updated 4 minutes ago

Overcast
Overcast
54.8 °F
Feels Like 54.8 °F
N
2.0
Wind Variable Wind from WSW
Gusts 3.0 mph

Today
High -- | Low -- °F
--% Chance of Precip.
Yesterday
High -- | Low -- °F
Precip. -- in
6:33 AM 7:54 PM
Waning Crescent, 4% visible
Pressure 29.93 in
Visibility 10.0 miles
Clouds Scattered Clouds 7500 ft
Overcast 9000 ft
Dew Point 51 °F
Humidity 87%
Rainfall 0.00 in
Snow Depth Not available.
UV 0 out of 12
Pollen 8.30 out of 12
Air Quality Not available.
Flu Activity Not available.
METAR KMTJ 231253Z AUTO 00000KT 10SM SCT075 OVC090 13/12 A3011 RMK AO2 RAB26E44 SLP133 P0000 T01330117

More Conditions Fewer Conditions

Pressure 29.93 in
Visibility 10.0 miles
Clouds Scattered Clouds 7500 ft
Overcast 9000 ft
Dew Point 51 °F
Humidity 87%
Rainfall 0.00 in
Snow Depth Not available.
UV 0 out of 12
Pollen 8.30 out of 12
Air Quality Not available.
Flu Activity Not available.
METAR KMTJ 231253Z AUTO 00000KT 10SM SCT075 OVC090 13/12 A3011 RMK AO2 RAB26E44 SLP133 P0000 T01330117

More Conditions Fewer Conditions

10-Day Weather Forecast

Almanac

Astronomy

Aug. 23, 2014 Rise Set
Actual Time 6:33 AM MDT 7:54 PM MDT
Civil Twilight 6:05 AM MDT 8:21 PM MDT
Nautical Twilight 5:32 AM MDT 8:55 PM MDT
Astronomical Twilight 4:57 AM MDT 9:29 PM MDT
Moon 4:52 AM MDT 6:40 PM MDT
Length of Visible Light 14h 16m
Length of Day
13h 21m
Tomorrow will be 2m 18s shorter.
Waning Crescent, 4% of the Moon is Illuminated
Today
Waning Crescent
Aug 25
New
Sep 2
First Quarter
Sep 8
Full
Sep 15
Last Quarter

Today's Extremes

State Highs State Lows

Community

WunderPhotos

Upload Photos

1,746,435 photos uploaded!

WunderBlogs® & News

By Dr. Jeff Masters
Director of Meteorology, Weather Underground
By Kari Strenfel
Meteorologist, Weather Underground
By Christopher C. Burt
Weather Historian, Weather Underground
August 23, 2014
August 23, 2014
August 23, 2014

Nearby

Snow Depth

Station Depth Elevation
Columbine Pass 0 in 9400 ft
Idarado 0 in 9800 ft
Red Mountain Pass 0 in 11150 ft
Lone Cone 7 in 9600 ft
Mineral Creek 0 in 10040 ft

Earthquake Activity

City Distance Mag. Time & Date
No recent earthquake activity has been reported nearby.
Minimum magnitude displayed is 2.5.

Coastal Water Temperatures

Place Temperature
No Stations Reporting

Nearby Weather Stations